DLH742 EDDM-RJBB
Flight info
| Callsign | DLH742 |
|---|---|
| Flight time | N/A |
| Altitude | 23000 |
| Route | KIRDI3S KIRDI DCT BUWOQ DCT OBFEZ/N0481F350 DCT STEIN DCT TEGRI/N0479F370 DCT DINRO DCT UDROS UM859 KARDE UN644 ROLIN DCT TAGAR DCT BT DCT BARAD M747 SUBUT T916 LEYLA N161 GASBI/K0902F370 N161 ARLIF/K0906F390 N161 SARIN/K0876S1190 A368 FKG W188 BATUS/K0891S1250 W188 LIKMI W270 DKO W69 HUR B339 LADIX W34 VAPGU W100 ORAVA W201 UNSEK A326 DONVO G597 AGAVO/N0475F410 Y644 EGOBA Y697 LANAT Y597 MIHOU Y361 SAEKI Y36 ATMUG |
| Aircraft | A359/H-SADE2E3GHIJ1J2J3J4J5M1P2RWXYZ/LB1D1 |
Departure
| Time | 2026-05-06 18:20 |
|---|---|
| Airport | Munich Airport (EDDM) |
Arrival
| Time | N/A |
|---|---|
| Airport | Kansai International Airport (RJBB) |
| Time | Latitude | Longitude | Altitude | Speed | Heading |
|---|---|---|---|---|---|
| 2026-05-06 17:42 | 48.35619 | 11.79707 | 1480 ft | 0 kts | 83° |
| 2026-05-06 18:06 | 48.35619 | 11.79703 | 1480 ft | 3 kts | 83° |
| 2026-05-06 18:07 | 48.35615 | 11.79664 | 1477 ft | 4 kts | 83° |
| 2026-05-06 18:07 | 48.35613 | 11.79629 | 1482 ft | 2 kts | 83° |
| 2026-05-06 18:07 | 48.35613 | 11.79592 | 1479 ft | 4 kts | 109° |
| 2026-05-06 18:07 | 48.35626 | 11.79563 | 1476 ft | 4 kts | 159° |
| 2026-05-06 18:08 | 48.35651 | 11.79556 | 1479 ft | 4 kts | 173° |
| 2026-05-06 18:08 | 48.35671 | 11.79552 | 1479 ft | 0 kts | 173° |
| 2026-05-06 18:12 | 48.35670 | 11.79552 | 1491 ft | 1 kts | 173° |
| 2026-05-06 18:12 | 48.35641 | 11.79557 | 1487 ft | 8 kts | 173° |
| 2026-05-06 18:12 | 48.35566 | 11.79570 | 1478 ft | 11 kts | 173° |
| 2026-05-06 18:13 | 48.35488 | 11.79584 | 1483 ft | 12 kts | 173° |
| 2026-05-06 18:13 | 48.35407 | 11.79598 | 1478 ft | 12 kts | 173° |
| 2026-05-06 18:13 | 48.35320 | 11.79613 | 1485 ft | 13 kts | 173° |
| 2026-05-06 18:13 | 48.35225 | 11.79629 | 1484 ft | 14 kts | 173° |
| 2026-05-06 18:14 | 48.35125 | 11.79646 | 1483 ft | 15 kts | 173° |
| 2026-05-06 18:14 | 48.35021 | 11.79664 | 1486 ft | 15 kts | 173° |
| 2026-05-06 18:14 | 48.34916 | 11.79682 | 1480 ft | 15 kts | 174° |
| 2026-05-06 18:14 | 48.34821 | 11.79720 | 1485 ft | 13 kts | 131° |
| 2026-05-06 18:15 | 48.34814 | 11.79849 | 1481 ft | 13 kts | 83° |
| 2026-05-06 18:15 | 48.34824 | 11.79985 | 1487 ft | 13 kts | 84° |
| 2026-05-06 18:15 | 48.34835 | 11.80128 | 1478 ft | 14 kts | 83° |
| 2026-05-06 18:15 | 48.34841 | 11.80277 | 1481 ft | 14 kts | 99° |
| 2026-05-06 18:16 | 48.34778 | 11.80385 | 1476 ft | 14 kts | 159° |
| 2026-05-06 18:16 | 48.34684 | 11.80406 | 1480 ft | 9 kts | 173° |
| 2026-05-06 18:16 | 48.34627 | 11.80416 | 1480 ft | 0 kts | 173° |
| 2026-05-06 18:18 | 48.34623 | 11.80417 | 1483 ft | 2 kts | 173° |
| 2026-05-06 18:19 | 48.34581 | 11.80417 | 1477 ft | 10 kts | 187° |
| 2026-05-06 18:19 | 48.34504 | 11.80364 | 1476 ft | 15 kts | 220° |
| 2026-05-06 18:19 | 48.34462 | 11.80207 | 1482 ft | 19 kts | 263° |
| 2026-05-06 18:19 | 48.34439 | 11.79913 | 1481 ft | 50 kts | 263° |
| 2026-05-06 18:20 | 48.34379 | 11.79131 | 1486 ft | 100 kts | 263° |
| 2026-05-06 18:20 | 48.34283 | 11.77877 | 1488 ft | 142 kts | 263° |
| 2026-05-06 18:20 | 48.34162 | 11.76309 | 1902 ft | 144 kts | 263° |
| 2026-05-06 18:20 | 48.34063 | 11.74862 | 2558 ft | 136 kts | 263° |
| 2026-05-06 18:21 | 48.33952 | 11.73445 | 2971 ft | 141 kts | 262° |
| 2026-05-06 18:21 | 48.33563 | 11.71998 | 3112 ft | 162 kts | 237° |
| 2026-05-06 18:21 | 48.32594 | 11.70937 | 3270 ft | 191 kts | 206° |
| 2026-05-06 18:21 | 48.31195 | 11.70668 | 3546 ft | 213 kts | 188° |
| 2026-05-06 18:22 | 48.29678 | 11.70701 | 3973 ft | 222 kts | 182° |
| 2026-05-06 18:22 | 48.28151 | 11.71331 | 4433 ft | 238 kts | 159° |
| 2026-05-06 18:22 | 48.26683 | 11.72690 | 4702 ft | 258 kts | 150° |
| 2026-05-06 18:22 | 48.25163 | 11.74290 | 5009 ft | 273 kts | 149° |
| 2026-05-06 18:23 | 48.23595 | 11.75937 | 5539 ft | 277 kts | 150° |
| 2026-05-06 18:23 | 48.22009 | 11.77582 | 6193 ft | 277 kts | 150° |
| 2026-05-06 18:23 | 48.20422 | 11.79226 | 6882 ft | 278 kts | 149° |
| 2026-05-06 18:23 | 48.19028 | 11.81267 | 7522 ft | 287 kts | 128° |
| 2026-05-06 18:24 | 48.18302 | 11.84079 | 8178 ft | 297 kts | 99° |
| 2026-05-06 18:24 | 48.18350 | 11.87193 | 8870 ft | 302 kts | 86° |
| 2026-05-06 18:24 | 48.18598 | 11.90340 | 9569 ft | 304 kts | 86° |
| 2026-05-06 18:24 | 48.18850 | 11.93497 | 10220 ft | 306 kts | 86° |
| 2026-05-06 18:25 | 48.19093 | 11.96678 | 10818 ft | 309 kts | 87° |
| 2026-05-06 18:25 | 48.19329 | 11.99891 | 11422 ft | 312 kts | 87° |
| 2026-05-06 18:25 | 48.19562 | 12.03138 | 12047 ft | 314 kts | 87° |
| 2026-05-06 18:25 | 48.19795 | 12.06417 | 12653 ft | 318 kts | 87° |
| 2026-05-06 18:26 | 48.20024 | 12.09686 | 13208 ft | 322 kts | 87° |
| 2026-05-06 18:26 | 48.20261 | 12.13082 | 13788 ft | 325 kts | 87° |
| 2026-05-06 18:26 | 48.20492 | 12.16414 | 14305 ft | 327 kts | 87° |
| 2026-05-06 18:26 | 48.20727 | 12.19819 | 14834 ft | 330 kts | 87° |
| 2026-05-06 18:27 | 48.20966 | 12.23288 | 15348 ft | 333 kts | 87° |
| 2026-05-06 18:27 | 48.21201 | 12.26729 | 15854 ft | 335 kts | 87° |
| 2026-05-06 18:27 | 48.21438 | 12.30214 | 16371 ft | 338 kts | 87° |
| 2026-05-06 18:27 | 48.21678 | 12.33779 | 16887 ft | 341 kts | 87° |
| 2026-05-06 18:28 | 48.21915 | 12.37284 | 17396 ft | 343 kts | 87° |
| 2026-05-06 18:28 | 48.22154 | 12.40855 | 17927 ft | 346 kts | 87° |
| 2026-05-06 18:28 | 48.22394 | 12.44448 | 18391 ft | 348 kts | 87° |
| 2026-05-06 18:28 | 48.22634 | 12.48078 | 18809 ft | 351 kts | 88° |
| 2026-05-06 18:29 | 48.22876 | 12.51742 | 19250 ft | 354 kts | 88° |
| 2026-05-06 18:29 | 48.23093 | 12.55432 | 19673 ft | 355 kts | 91° |
| 2026-05-06 18:29 | 48.22971 | 12.59128 | 19989 ft | 358 kts | 101° |
| 2026-05-06 18:29 | 48.22632 | 12.62867 | 20197 ft | 367 kts | 102° |
| 2026-05-06 18:30 | 48.22255 | 12.66715 | 20410 ft | 378 kts | 102° |
| 2026-05-06 18:30 | 48.21870 | 12.70665 | 20623 ft | 388 kts | 102° |
| 2026-05-06 18:30 | 48.21478 | 12.74722 | 20837 ft | 399 kts | 102° |
| 2026-05-06 18:30 | 48.21079 | 12.78880 | 21059 ft | 409 kts | 102° |
| 2026-05-06 18:31 | 48.20775 | 12.83190 | 21284 ft | 421 kts | 96° |
| 2026-05-06 18:31 | 48.20699 | 12.87632 | 21509 ft | 432 kts | 93° |
| 2026-05-06 18:31 | 48.20751 | 12.92183 | 21797 ft | 440 kts | 91° |
| 2026-05-06 18:31 | 48.20860 | 12.96816 | 21983 ft | 450 kts | 91° |
| 2026-05-06 18:32 | 48.20978 | 13.01541 | 22395 ft | 454 kts | 91° |
| 2026-05-06 18:32 | 48.21087 | 13.06287 | 22876 ft | 457 kts | 92° |
| 2026-05-06 18:32 | 48.21179 | 13.11045 | 23313 ft | 460 kts | 92° |
| 2026-05-06 18:32 | 48.21256 | 13.15857 | 23699 ft | 463 kts | 92° |
| 2026-05-06 18:33 | 48.21323 | 13.20700 | 24093 ft | 465 kts | 92° |
| 2026-05-06 18:33 | 48.21383 | 13.25571 | 24483 ft | 468 kts | 92° |
| 2026-05-06 18:33 | 48.21439 | 13.30456 | 24823 ft | 472 kts | 93° |
| 2026-05-06 18:33 | 48.21493 | 13.35396 | 25203 ft | 475 kts | 93° |
| 2026-05-06 18:34 | 48.21546 | 13.40370 | 25512 ft | 479 kts | 93° |
| 2026-05-06 18:34 | 48.21597 | 13.45378 | 25788 ft | 484 kts | 93° |
| 2026-05-06 18:34 | 48.21648 | 13.50448 | 26147 ft | 486 kts | 93° |
| 2026-05-06 18:34 | 48.21698 | 13.55531 | 26530 ft | 489 kts | 94° |
| 2026-05-06 18:35 | 48.21745 | 13.60640 | 26899 ft | 492 kts | 94° |
| 2026-05-06 18:35 | 48.21791 | 13.65770 | 27231 ft | 495 kts | 94° |
| 2026-05-06 18:35 | 48.21834 | 13.70951 | 27575 ft | 498 kts | 94° |
| 2026-05-06 18:35 | 48.21876 | 13.76155 | 27922 ft | 501 kts | 94° |
| 2026-05-06 18:36 | 48.21916 | 13.81394 | 28219 ft | 503 kts | 94° |
| 2026-05-06 18:36 | 48.21953 | 13.86666 | 28483 ft | 507 kts | 94° |
| 2026-05-06 18:36 | 48.21988 | 13.92040 | 28689 ft | 508 kts | 94° |
| 2026-05-06 18:36 | 48.21863 | 13.97163 | 28707 ft | 487 kts | 104° |
| 2026-05-06 18:37 | 48.21028 | 14.01952 | 28707 ft | 468 kts | 116° |
| 2026-05-06 18:37 | 48.20269 | 14.05036 | 28699 ft | 466 kts | 118° |
| 2026-05-06 18:37 | 48.17337 | 14.15377 | 28802 ft | 464 kts | 121° |
| 2026-05-06 18:38 | 48.16004 | 14.19811 | 28906 ft | 469 kts | 121° |
| 2026-05-06 18:38 | 48.14652 | 14.24295 | 29046 ft | 475 kts | 121° |
| 2026-05-06 18:38 | 48.13287 | 14.28847 | 29227 ft | 481 kts | 121° |
| 2026-05-06 18:38 | 48.11917 | 14.33447 | 29379 ft | 487 kts | 120° |
| 2026-05-06 18:39 | 48.10535 | 14.38107 | 29601 ft | 492 kts | 120° |
| 2026-05-06 18:39 | 48.09159 | 14.42760 | 29870 ft | 494 kts | 120° |
| 2026-05-06 18:39 | 48.07765 | 14.47477 | 30135 ft | 496 kts | 120° |
| 2026-05-06 18:40 | 48.04984 | 14.56864 | 30666 ft | 499 kts | 121° |
| 2026-05-06 18:40 | 48.03559 | 14.61653 | 30922 ft | 500 kts | 120° |
| 2026-05-06 18:40 | 48.02161 | 14.66345 | 31234 ft | 500 kts | 120° |
| 2026-05-06 18:40 | 48.00739 | 14.71104 | 31424 ft | 503 kts | 120° |
| 2026-05-06 18:41 | 47.99771 | 14.74334 | 31543 ft | 505 kts | 120° |
| 2026-05-06 18:41 | 47.98355 | 14.79049 | 31775 ft | 506 kts | 120° |
| 2026-05-06 18:41 | 47.96912 | 14.83848 | 32065 ft | 506 kts | 120° |
| 2026-05-06 18:41 | 47.95454 | 14.88691 | 32334 ft | 506 kts | 121° |
| 2026-05-06 18:42 | 47.94012 | 14.93473 | 32672 ft | 504 kts | 121° |
| 2026-05-06 18:42 | 47.92574 | 14.98235 | 32985 ft | 504 kts | 121° |
| 2026-05-06 18:42 | 47.91142 | 15.02957 | 33006 ft | 509 kts | 120° |
| 2026-05-06 18:42 | 47.89653 | 15.07851 | 33116 ft | 512 kts | 120° |
| 2026-05-06 18:43 | 47.88203 | 15.12620 | 33439 ft | 511 kts | 120° |
| 2026-05-06 18:43 | 47.86720 | 15.17492 | 33770 ft | 509 kts | 120° |
| 2026-05-06 18:43 | 47.85276 | 15.22227 | 34014 ft | 509 kts | 120° |
| 2026-05-06 18:43 | 47.83813 | 15.27015 | 34240 ft | 508 kts | 120° |
| 2026-05-06 18:44 | 47.82349 | 15.31799 | 34495 ft | 507 kts | 120° |
| 2026-05-06 18:44 | 47.80885 | 15.36577 | 34677 ft | 506 kts | 120° |
| 2026-05-06 18:44 | 47.79431 | 15.41365 | 34758 ft | 509 kts | 120° |
| 2026-05-06 18:45 | 47.76543 | 15.50932 | 34783 ft | 507 kts | 119° |
| 2026-05-06 18:45 | 47.73647 | 15.60497 | 34786 ft | 507 kts | 120° |
| 2026-05-06 18:46 | 47.70741 | 15.70038 | 34797 ft | 507 kts | 120° |
| 2026-05-06 18:46 | 47.67819 | 15.79580 | 34792 ft | 508 kts | 120° |
| 2026-05-06 18:47 | 47.64889 | 15.89112 | 34791 ft | 508 kts | 120° |
| 2026-05-06 18:47 | 47.61953 | 15.98628 | 34790 ft | 508 kts | 120° |
| 2026-05-06 18:48 | 47.59005 | 16.08140 | 34800 ft | 507 kts | 120° |
| 2026-05-06 18:48 | 47.56054 | 16.17631 | 34802 ft | 507 kts | 120° |
| 2026-05-06 18:49 | 47.53122 | 16.27040 | 34806 ft | 506 kts | 120° |
| 2026-05-06 18:49 | 47.50163 | 16.36493 | 34811 ft | 506 kts | 120° |
| 2026-05-06 18:50 | 47.47198 | 16.45925 | 34813 ft | 506 kts | 120° |
| 2026-05-06 18:50 | 47.44224 | 16.55351 | 34820 ft | 506 kts | 120° |
| 2026-05-06 18:51 | 47.41604 | 16.65024 | 35144 ft | 506 kts | 114° |
| 2026-05-06 18:51 | 47.40432 | 16.69912 | 35454 ft | 503 kts | 114° |
| 2026-05-06 18:51 | 47.39280 | 16.74773 | 35686 ft | 502 kts | 114° |
| 2026-05-06 18:51 | 47.38133 | 16.79644 | 35865 ft | 502 kts | 114° |
| 2026-05-06 18:52 | 47.36989 | 16.84502 | 36012 ft | 501 kts | 113° |
| 2026-05-06 18:52 | 47.35844 | 16.89358 | 36201 ft | 500 kts | 113° |
| 2026-05-06 18:52 | 47.34698 | 16.94203 | 36360 ft | 500 kts | 114° |
| 2026-05-06 18:52 | 47.33551 | 16.99038 | 36505 ft | 500 kts | 114° |
| 2026-05-06 18:53 | 47.32397 | 17.03888 | 36661 ft | 499 kts | 114° |
| 2026-05-06 18:53 | 47.31248 | 17.08701 | 36802 ft | 499 kts | 114° |
| 2026-05-06 18:53 | 47.30093 | 17.13531 | 36850 ft | 501 kts | 114° |
| 2026-05-06 18:54 | 47.27758 | 17.23246 | 36840 ft | 505 kts | 114° |
| 2026-05-06 18:54 | 47.25412 | 17.32981 | 36860 ft | 503 kts | 114° |
| 2026-05-06 18:55 | 47.23066 | 17.42680 | 36862 ft | 502 kts | 114° |
| 2026-05-06 18:55 | 47.20714 | 17.52353 | 36865 ft | 502 kts | 114° |
| 2026-05-06 18:56 | 47.18352 | 17.62019 | 36865 ft | 502 kts | 114° |
| 2026-05-06 18:56 | 47.15987 | 17.71665 | 36873 ft | 501 kts | 114° |
| 2026-05-06 18:57 | 47.13618 | 17.81283 | 36889 ft | 501 kts | 114° |
| 2026-05-06 18:57 | 47.11238 | 17.90899 | 36895 ft | 501 kts | 114° |
| 2026-05-06 18:58 | 47.08851 | 18.00504 | 36888 ft | 501 kts | 114° |
| 2026-05-06 18:58 | 47.06480 | 18.10009 | 36898 ft | 501 kts | 114° |
| 2026-05-06 18:59 | 47.04076 | 18.19603 | 36900 ft | 501 kts | 114° |
| 2026-05-06 18:59 | 47.01667 | 18.29175 | 36900 ft | 500 kts | 114° |
| 2026-05-06 19:00 | 46.99251 | 18.38737 | 36892 ft | 501 kts | 113° |
| 2026-05-06 19:00 | 46.96819 | 18.48317 | 36911 ft | 502 kts | 114° |
| 2026-05-06 19:01 | 46.94379 | 18.57896 | 36913 ft | 502 kts | 114° |
| 2026-05-06 19:01 | 46.91929 | 18.67471 | 36904 ft | 502 kts | 114° |
| 2026-05-06 19:02 | 46.89471 | 18.77036 | 36910 ft | 502 kts | 114° |
| 2026-05-06 19:02 | 46.87010 | 18.86574 | 36912 ft | 502 kts | 114° |
| 2026-05-06 19:03 | 46.84540 | 18.96107 | 36905 ft | 501 kts | 114° |
| 2026-05-06 19:03 | 46.82065 | 19.05623 | 36911 ft | 501 kts | 114° |
| 2026-05-06 19:04 | 46.79580 | 19.15133 | 36916 ft | 500 kts | 114° |
| 2026-05-06 19:04 | 46.77109 | 19.24554 | 36919 ft | 500 kts | 114° |
| 2026-05-06 19:05 | 46.74618 | 19.34011 | 36920 ft | 500 kts | 114° |
| 2026-05-06 19:05 | 46.72115 | 19.43478 | 36919 ft | 500 kts | 114° |
| 2026-05-06 19:06 | 46.69606 | 19.52925 | 36921 ft | 499 kts | 114° |
| 2026-05-06 19:06 | 46.67091 | 19.62364 | 36920 ft | 499 kts | 114° |
| 2026-05-06 19:07 | 46.64570 | 19.71782 | 36915 ft | 499 kts | 114° |
| 2026-05-06 19:07 | 46.62037 | 19.81208 | 36903 ft | 499 kts | 114° |
| 2026-05-06 19:08 | 46.59496 | 19.90626 | 36915 ft | 501 kts | 114° |
| 2026-05-06 19:08 | 46.56938 | 20.00068 | 36902 ft | 502 kts | 114° |
| 2026-05-06 19:09 | 46.54393 | 20.09430 | 36902 ft | 502 kts | 114° |
| 2026-05-06 19:09 | 46.51821 | 20.18851 | 36903 ft | 501 kts | 114° |
| 2026-05-06 19:10 | 46.49241 | 20.28264 | 36904 ft | 501 kts | 114° |
| 2026-05-06 19:10 | 46.46658 | 20.37653 | 36903 ft | 501 kts | 114° |
| 2026-05-06 19:11 | 46.44065 | 20.47037 | 36900 ft | 501 kts | 115° |
| 2026-05-06 19:11 | 46.41460 | 20.56429 | 36905 ft | 502 kts | 114° |
| 2026-05-06 19:12 | 46.38844 | 20.65821 | 36912 ft | 503 kts | 114° |
| 2026-05-06 19:12 | 46.36216 | 20.75229 | 36911 ft | 503 kts | 115° |
| 2026-05-06 19:13 | 46.33582 | 20.84616 | 36918 ft | 503 kts | 115° |
| 2026-05-06 19:13 | 46.30939 | 20.93994 | 36926 ft | 504 kts | 114° |
| 2026-05-06 19:14 | 46.28255 | 21.03363 | 36927 ft | 504 kts | 117° |
| 2026-05-06 19:14 | 46.24471 | 21.11756 | 36936 ft | 496 kts | 136° |
| 2026-05-06 19:15 | 46.19585 | 21.18638 | 36938 ft | 495 kts | 135° |
| 2026-05-06 19:15 | 46.15703 | 21.26959 | 36939 ft | 503 kts | 116° |
| 2026-05-06 19:15 | 46.14534 | 21.31661 | 36938 ft | 506 kts | 105° |
| 2026-05-06 19:16 | 46.13910 | 21.36678 | 36941 ft | 508 kts | 99° |
| 2026-05-06 19:16 | 46.12116 | 21.46478 | 36939 ft | 506 kts | 112° |
| 2026-05-06 19:17 | 46.09584 | 21.55922 | 36927 ft | 505 kts | 114° |
| 2026-05-06 19:17 | 46.06871 | 21.65284 | 36941 ft | 507 kts | 115° |